sensor_id;sensor_type;location;lat;lon;timestamp;pressure;altitude;pressure_sealevel;temperature;humidity
16120;BME280;12670;53.502;10.252;2023-11-21T00:02:57;100626.44;;;10.24;100.00
16120;BME280;12670;53.502;10.252;2023-11-21T00:06:00;100625.69;;;10.21;100.00
16120;BME280;12670;53.502;10.252;2023-11-21T00:09:03;100626.41;;;10.02;100.00
16120;BME280;12670;53.502;10.252;2023-11-21T00:12:07;100638.16;;;9.97;100.00
16120;BME280;12670;53.502;10.252;2023-11-21T00:15:12;100644.69;;;10.10;100.00
16120;BME280;12670;53.502;10.252;2023-11-21T00:18:15;100652.72;;;9.86;100.00
16120;BME280;12670;53.502;10.252;2023-11-21T00:21:18;100654.28;;;9.91;100.00
16120;BME280;12670;53.502;10.252;2023-11-21T00:24:20;100653.44;;;10.12;100.00
16120;BME280;12670;53.502;10.252;2023-11-21T00:27:23;100672.72;;;9.94;100.00
16120;BME280;12670;53.502;10.252;2023-11-21T00:30:27;100671.47;;;10.02;100.00
16120;BME280;12670;53.502;10.252;2023-11-21T00:33:31;100664.97;;;9.89;100.00
16120;BME280;12670;53.502;10.252;2023-11-21T00:36:34;100667.41;;;9.50;100.00
16120;BME280;12670;53.502;10.252;2023-11-21T00:39:37;100669.69;;;9.59;100.00
16120;BME280;12670;53.502;10.252;2023-11-21T00:42:41;100674.50;;;9.71;100.00
16120;BME280;12670;53.502;10.252;2023-11-21T00:45:45;100674.69;;;9.88;100.00
16120;BME280;12670;53.502;10.252;2023-11-21T00:48:50;100675.53;;;9.67;100.00
16120;BME280;12670;53.502;10.252;2023-11-21T00:51:53;100687.44;;;9.79;100.00
16120;BME280;12670;53.502;10.252;2023-11-21T00:54:56;100696.09;;;9.60;100.00
16120;BME280;12670;53.502;10.252;2023-11-21T00:58:01;100696.25;;;9.57;100.00
16120;BME280;12670;53.502;10.252;2023-11-21T01:01:07;100699.69;;;9.36;100.00
16120;BME280;12670;53.502;10.252;2023-11-21T01:04:09;100710.09;;;9.17;100.00
16120;BME280;12670;53.502;10.252;2023-11-21T01:07:12;100720.69;;;9.17;100.00
16120;BME280;12670;53.502;10.252;2023-11-21T01:10:15;100728.88;;;9.34;100.00
16120;BME280;12670;53.502;10.252;2023-11-21T01:13:18;100735.25;;;9.29;100.00
16120;BME280;12670;53.502;10.252;2023-11-21T01:16:23;100739.56;;;9.31;100.00
16120;BME280;12670;53.502;10.252;2023-11-21T01:19:26;100742.03;;;9.13;100.00
16120;BME280;12670;53.502;10.252;2023-11-21T01:22:30;100744.53;;;8.92;100.00
16120;BME280;12670;53.502;10.252;2023-11-21T01:25:33;100753.63;;;9.33;100.00
16120;BME280;12670;53.502;10.252;2023-11-21T01:28:35;100757.31;;;9.29;100.00
16120;BME280;12670;53.502;10.252;2023-11-21T01:31:40;100756.75;;;9.20;100.00
16120;BME280;12670;53.502;10.252;2023-11-21T01:34:43;100760.16;;;9.23;100.00
16120;BME280;12670;53.502;10.252;2023-11-21T01:37:45;100756.72;;;9.21;100.00
16120;BME280;12670;53.502;10.252;2023-11-21T01:40:49;100759.44;;;9.43;100.00
16120;BME280;12670;53.502;10.252;2023-11-21T01:43:52;100767.78;;;9.32;100.00
16120;BME280;12670;53.502;10.252;2023-11-21T01:46:56;100766.88;;;9.33;100.00
16120;BME280;12670;53.502;10.252;2023-11-21T01:50:00;100771.56;;;9.25;100.00
16120;BME280;12670;53.502;10.252;2023-11-21T01:53:03;100768.41;;;9.14;100.00
16120;BME280;12670;53.502;10.252;2023-11-21T01:56:07;100773.31;;;9.26;100.00
16120;BME280;12670;53.502;10.252;2023-11-21T01:59:12;100771.91;;;9.16;100.00
16120;BME280;12670;53.502;10.252;2023-11-21T02:02:17;100784.66;;;9.05;100.00
16120;BME280;12670;53.502;10.252;2023-11-21T02:05:20;100783.63;;;9.09;100.00
16120;BME280;12670;53.502;10.252;2023-11-21T02:08:23;100782.50;;;9.16;100.00
16120;BME280;12670;53.502;10.252;2023-11-21T02:11:26;100785.63;;;9.27;100.00
16120;BME280;12670;53.502;10.252;2023-11-21T02:14:29;100801.22;;;9.10;100.00
16120;BME280;12670;53.502;10.252;2023-11-21T02:17:34;100804.19;;;9.01;100.00
16120;BME280;12670;53.502;10.252;2023-11-21T02:20:37;100804.81;;;9.09;100.00
16120;BME280;12670;53.502;10.252;2023-11-21T02:23:44;100809.03;;;8.88;100.00
16120;BME280;12670;53.502;10.252;2023-11-21T02:26:48;100813.59;;;9.10;100.00
16120;BME280;12670;53.502;10.252;2023-11-21T02:29:52;100816.69;;;9.22;100.00
16120;BME280;12670;53.502;10.252;2023-11-21T02:32:55;100816.50;;;9.02;100.00
16120;BME280;12670;53.502;10.252;2023-11-21T02:35:59;100820.50;;;9.14;100.00
16120;BME280;12670;53.502;10.252;2023-11-21T02:39:03;100819.69;;;9.12;100.00
16120;BME280;12670;53.502;10.252;2023-11-21T02:42:06;100826.88;;;9.08;100.00
16120;BME280;12670;53.502;10.252;2023-11-21T02:45:09;100841.88;;;9.07;100.00
16120;BME280;12670;53.502;10.252;2023-11-21T02:48:14;100835.06;;;9.00;100.00
16120;BME280;12670;53.502;10.252;2023-11-21T02:51:16;100842.00;;;9.04;100.00
16120;BME280;12670;53.502;10.252;2023-11-21T02:54:20;100850.44;;;9.16;100.00
16120;BME280;12670;53.502;10.252;2023-11-21T02:57:23;100854.19;;;9.08;100.00
16120;BME280;12670;53.502;10.252;2023-11-21T03:00:26;100855.13;;;8.81;100.00
16120;BME280;12670;53.502;10.252;2023-11-21T03:03:29;100854.53;;;8.99;100.00
16120;BME280;12670;53.502;10.252;2023-11-21T03:06:31;100862.41;;;9.01;100.00
16120;BME280;12670;53.502;10.252;2023-11-21T03:09:36;100862.31;;;9.04;100.00
16120;BME280;12670;53.502;10.252;2023-11-21T03:12:39;100862.09;;;9.10;100.00
16120;BME280;12670;53.502;10.252;2023-11-21T03:15:42;100857.31;;;8.95;100.00
16120;BME280;12670;53.502;10.252;2023-11-21T03:18:45;100869.06;;;8.86;100.00
16120;BME280;12670;53.502;10.252;2023-11-21T03:21:47;100858.94;;;8.99;100.00
16120;BME280;12670;53.502;10.252;2023-11-21T03:24:51;100866.69;;;9.05;100.00
16120;BME280;12670;53.502;10.252;2023-11-21T03:27:54;100866.97;;;8.96;100.00
16120;BME280;12670;53.502;10.252;2023-11-21T03:30:57;100877.50;;;8.71;100.00
16120;BME280;12670;53.502;10.252;2023-11-21T03:34:00;100868.09;;;8.89;100.00
16120;BME280;12670;53.502;10.252;2023-11-21T03:37:03;100883.63;;;8.99;100.00
16120;BME280;12670;53.502;10.252;2023-11-21T03:40:08;100887.44;;;8.91;100.00
16120;BME280;12670;53.502;10.252;2023-11-21T03:43:11;100903.16;;;8.95;100.00
16120;BME280;12670;53.502;10.252;2023-11-21T03:46:14;100913.00;;;8.92;100.00
16120;BME280;12670;53.502;10.252;2023-11-21T03:49:16;100914.41;;;9.02;100.00
16120;BME280;12670;53.502;10.252;2023-11-21T03:52:19;100926.09;;;8.95;100.00
16120;BME280;12670;53.502;10.252;2023-11-21T03:55:23;100933.63;;;8.80;100.00
16120;BME280;12670;53.502;10.252;2023-11-21T03:58:26;100934.78;;;8.72;100.00
16120;BME280;12670;53.502;10.252;2023-11-21T04:01:29;100935.06;;;8.91;100.00
16120;BME280;12670;53.502;10.252;2023-11-21T04:04:32;100939.09;;;9.02;100.00
16120;BME280;12670;53.502;10.252;2023-11-21T04:07:35;100937.00;;;8.86;100.00
16120;BME280;12670;53.502;10.252;2023-11-21T04:10:40;100948.84;;;8.74;100.00
16120;BME280;12670;53.502;10.252;2023-11-21T04:13:43;100951.97;;;8.87;100.00
16120;BME280;12670;53.502;10.252;2023-11-21T04:16:48;100965.38;;;8.80;100.00
16120;BME280;12670;53.502;10.252;2023-11-21T04:19:51;100962.41;;;8.91;100.00
16120;BME280;12670;53.502;10.252;2023-11-21T04:22:53;100975.78;;;8.87;100.00
16120;BME280;12670;53.502;10.252;2023-11-21T04:25:58;100972.28;;;8.85;100.00
16120;BME280;12670;53.502;10.252;2023-11-21T04:29:00;100978.16;;;8.94;100.00
16120;BME280;12670;53.502;10.252;2023-11-21T04:32:04;100980.91;;;8.63;100.00
16120;BME280;12670;53.502;10.252;2023-11-21T04:35:08;100986.34;;;8.87;100.00
16120;BME280;12670;53.502;10.252;2023-11-21T04:38:11;100992.09;;;8.71;100.00
16120;BME280;12670;53.502;10.252;2023-11-21T04:41:15;100991.09;;;8.75;100.00
16120;BME280;12670;53.502;10.252;2023-11-21T04:44:17;101001.56;;;8.80;100.00
16120;BME280;12670;53.502;10.252;2023-11-21T04:47:20;101001.69;;;8.75;100.00
16120;BME280;12670;53.502;10.252;2023-11-21T04:50:23;101013.75;;;8.84;100.00
16120;BME280;12670;53.502;10.252;2023-11-21T04:53:27;101018.19;;;8.84;100.00
16120;BME280;12670;53.502;10.252;2023-11-21T04:56:31;101018.19;;;8.84;100.00
16120;BME280;12670;53.502;10.252;2023-11-21T04:59:34;101020.75;;;8.87;100.00
16120;BME280;12670;53.502;10.252;2023-11-21T05:02:36;101008.50;;;8.82;100.00
16120;BME280;12670;53.502;10.252;2023-11-21T05:05:40;101015.34;;;8.90;100.00
16120;BME280;12670;53.502;10.252;2023-11-21T05:08:42;101014.44;;;8.91;100.00
16120;BME280;12670;53.502;10.252;2023-11-21T05:11:46;101028.75;;;8.84;100.00
16120;BME280;12670;53.502;10.252;2023-11-21T05:14:49;101030.56;;;8.83;100.00
16120;BME280;12670;53.502;10.252;2023-11-21T05:17:52;101030.78;;;8.75;100.00
16120;BME280;12670;53.502;10.252;2023-11-21T05:20:55;101036.16;;;8.72;100.00
16120;BME280;12670;53.502;10.252;2023-11-21T05:23:58;101045.69;;;8.78;100.00
16120;BME280;12670;53.502;10.252;2023-11-21T05:27:02;101038.59;;;8.80;100.00
16120;BME280;12670;53.502;10.252;2023-11-21T05:30:06;101044.75;;;8.80;100.00
16120;BME280;12670;53.502;10.252;2023-11-21T05:33:11;101048.31;;;8.79;100.00
16120;BME280;12670;53.502;10.252;2023-11-21T05:36:13;101057.59;;;8.63;100.00
16120;BME280;12670;53.502;10.252;2023-11-21T05:39:16;101058.97;;;8.76;100.00
16120;BME280;12670;53.502;10.252;2023-11-21T05:42:21;101062.06;;;8.91;100.00
16120;BME280;12670;53.502;10.252;2023-11-21T05:45:24;101069.63;;;8.73;100.00
16120;BME280;12670;53.502;10.252;2023-11-21T05:48:27;101072.25;;;8.73;100.00
16120;BME280;12670;53.502;10.252;2023-11-21T05:51:30;101076.66;;;8.74;100.00
16120;BME280;12670;53.502;10.252;2023-11-21T05:54:32;101080.56;;;8.61;100.00
16120;BME280;12670;53.502;10.252;2023-11-21T05:57:37;101082.03;;;8.71;100.00
16120;BME280;12670;53.502;10.252;2023-11-21T06:00:41;101091.88;;;8.66;100.00
16120;BME280;12670;53.502;10.252;2023-11-21T06:03:44;101099.63;;;8.72;100.00
16120;BME280;12670;53.502;10.252;2023-11-21T06:06:47;101096.19;;;8.70;100.00
16120;BME280;12670;53.502;10.252;2023-11-21T06:09:50;101110.50;;;8.63;100.00
16120;BME280;12670;53.502;10.252;2023-11-21T06:12:54;101115.63;;;8.69;100.00
16120;BME280;12670;53.502;10.252;2023-11-21T06:15:57;101129.59;;;8.74;100.00
16120;BME280;12670;53.502;10.252;2023-11-21T06:18:59;101128.09;;;8.64;100.00
16120;BME280;12670;53.502;10.252;2023-11-21T06:22:03;101143.78;;;8.70;100.00
16120;BME280;12670;53.502;10.252;2023-11-21T06:25:06;101147.53;;;8.63;100.00
16120;BME280;12670;53.502;10.252;2023-11-21T06:28:11;101146.66;;;8.63;100.00
16120;BME280;12670;53.502;10.252;2023-11-21T06:31:14;101159.72;;;8.67;100.00
16120;BME280;12670;53.502;10.252;2023-11-21T06:34:17;101160.69;;;8.65;100.00
16120;BME280;12670;53.502;10.252;2023-11-21T06:37:20;101164.31;;;8.62;100.00
16120;BME280;12670;53.502;10.252;2023-11-21T06:40:24;101166.22;;;8.55;100.00
16120;BME280;12670;53.502;10.252;2023-11-21T06:43:28;101173.44;;;8.50;100.00
16120;BME280;12670;53.502;10.252;2023-11-21T06:46:32;101178.31;;;8.66;100.00
16120;BME280;12670;53.502;10.252;2023-11-21T06:49:36;101174.84;;;8.64;100.00
16120;BME280;12670;53.502;10.252;2023-11-21T06:52:40;101184.38;;;8.69;100.00
16120;BME280;12670;53.502;10.252;2023-11-21T06:55:42;101181.75;;;8.69;100.00
16120;BME280;12670;53.502;10.252;2023-11-21T06:58:46;101184.44;;;8.66;100.00
16120;BME280;12670;53.502;10.252;2023-11-21T07:01:50;101196.00;;;8.64;100.00
16120;BME280;12670;53.502;10.252;2023-11-21T07:04:53;101203.13;;;8.60;100.00
16120;BME280;12670;53.502;10.252;2023-11-21T07:07:56;101193.41;;;8.62;100.00
16120;BME280;12670;53.502;10.252;2023-11-21T07:10:59;101200.44;;;8.63;100.00
16120;BME280;12670;53.502;10.252;2023-11-21T07:14:03;101202.97;;;8.66;100.00
16120;BME280;12670;53.502;10.252;2023-11-21T07:17:08;101220.00;;;8.56;100.00
16120;BME280;12670;53.502;10.252;2023-11-21T07:20:11;101232.66;;;8.77;100.00
16120;BME280;12670;53.502;10.252;2023-11-21T07:23:15;101231.03;;;8.72;100.00
16120;BME280;12670;53.502;10.252;2023-11-21T07:26:18;101241.00;;;8.62;100.00
16120;BME280;12670;53.502;10.252;2023-11-21T07:29:23;101239.34;;;8.58;100.00
16120;BME280;12670;53.502;10.252;2023-11-21T07:32:27;101253.63;;;8.51;100.00
16120;BME280;12670;53.502;10.252;2023-11-21T07:35:29;101253.16;;;8.69;100.00
16120;BME280;12670;53.502;10.252;2023-11-21T07:38:32;101267.16;;;8.73;100.00
16120;BME280;12670;53.502;10.252;2023-11-21T07:41:35;101264.50;;;8.73;100.00
16120;BME280;12670;53.502;10.252;2023-11-21T07:44:40;101273.31;;;8.75;100.00
16120;BME280;12670;53.502;10.252;2023-11-21T07:47:43;101267.38;;;8.65;100.00
16120;BME280;12670;53.502;10.252;2023-11-21T07:50:46;101270.06;;;8.64;100.00
16120;BME280;12670;53.502;10.252;2023-11-21T07:53:49;101273.63;;;8.63;100.00
16120;BME280;12670;53.502;10.252;2023-11-21T07:56:52;101278.00;;;8.64;100.00
16120;BME280;12670;53.502;10.252;2023-11-21T07:59:56;101289.19;;;8.73;100.00
16120;BME280;12670;53.502;10.252;2023-11-21T08:02:58;101292.69;;;8.75;100.00
16120;BME280;12670;53.502;10.252;2023-11-21T08:06:02;101292.78;;;8.71;100.00
16120;BME280;12670;53.502;10.252;2023-11-21T08:09:07;101286.41;;;8.79;100.00
16120;BME280;12670;53.502;10.252;2023-11-21T08:12:10;101296.75;;;8.89;100.00
16120;BME280;12670;53.502;10.252;2023-11-21T08:15:14;101303.88;;;8.85;100.00
16120;BME280;12670;53.502;10.252;2023-11-21T08:18:17;101307.28;;;8.90;100.00
16120;BME280;12670;53.502;10.252;2023-11-21T08:21:20;101305.66;;;8.85;100.00
16120;BME280;12670;53.502;10.252;2023-11-21T08:24:25;101310.78;;;8.91;100.00
16120;BME280;12670;53.502;10.252;2023-11-21T08:27:28;101309.06;;;8.91;100.00
16120;BME280;12670;53.502;10.252;2023-11-21T08:30:32;101309.97;;;8.89;100.00
16120;BME280;12670;53.502;10.252;2023-11-21T08:33:34;101323.16;;;8.92;100.00
16120;BME280;12670;53.502;10.252;2023-11-21T08:36:41;101321.09;;;9.03;100.00
16120;BME280;12670;53.502;10.252;2023-11-21T08:39:44;101328.03;;;9.07;100.00
16120;BME280;12670;53.502;10.252;2023-11-21T08:42:47;101331.34;;;9.15;100.00
16120;BME280;12670;53.502;10.252;2023-11-21T08:45:52;101338.00;;;8.96;100.00
16120;BME280;12670;53.502;10.252;2023-11-21T08:48:54;101341.41;;;9.01;100.00
16120;BME280;12670;53.502;10.252;2023-11-21T08:51:57;101348.69;;;8.93;100.00
16120;BME280;12670;53.502;10.252;2023-11-21T08:55:01;101355.56;;;8.64;100.00
16120;BME280;12670;53.502;10.252;2023-11-21T08:58:09;101363.34;;;9.06;100.00
16120;BME280;12670;53.502;10.252;2023-11-21T09:01:15;101358.22;;;9.00;100.00
16120;BME280;12670;53.502;10.252;2023-11-21T09:04:18;101361.63;;;9.05;100.00
16120;BME280;12670;53.502;10.252;2023-11-21T09:07:21;101369.50;;;9.06;100.00
16120;BME280;12670;53.502;10.252;2023-11-21T09:10:24;101376.34;;;8.81;100.00
16120;BME280;12670;53.502;10.252;2023-11-21T09:13:27;101386.50;;;8.98;100.00
16120;BME280;12670;53.502;10.252;2023-11-21T09:16:32;101395.91;;;9.10;100.00
16120;BME280;12670;53.502;10.252;2023-11-21T09:19:35;101392.84;;;9.26;100.00
16120;BME280;12670;53.502;10.252;2023-11-21T09:22:38;101401.91;;;9.16;100.00
16120;BME280;12670;53.502;10.252;2023-11-21T09:25:40;101409.88;;;9.16;100.00
16120;BME280;12670;53.502;10.252;2023-11-21T09:28:47;101404.63;;;9.13;100.00
16120;BME280;12670;53.502;10.252;2023-11-21T09:31:53;101417.41;;;8.97;100.00
16120;BME280;12670;53.502;10.252;2023-11-21T09:34:59;101424.94;;;9.13;100.00
16120;BME280;12670;53.502;10.252;2023-11-21T09:38:05;101421.06;;;9.27;100.00
16120;BME280;12670;53.502;10.252;2023-11-21T09:41:21;101428.69;;;9.04;100.00
16120;BME280;12670;53.502;10.252;2023-11-21T09:44:31;101435.41;;;9.17;100.00
16120;BME280;12670;53.502;10.252;2023-11-21T09:47:38;101431.81;;;9.20;100.00
16120;BME280;12670;53.502;10.252;2023-11-21T09:50:41;101436.50;;;9.08;100.00
16120;BME280;12670;53.502;10.252;2023-11-21T09:53:46;101433.28;;;8.97;100.00
16120;BME280;12670;53.502;10.252;2023-11-21T09:56:51;101442.03;;;9.35;100.00
16120;BME280;12670;53.502;10.252;2023-11-21T09:59:55;101449.97;;;9.35;100.00
16120;BME280;12670;53.502;10.252;2023-11-21T10:03:01;101461.94;;;9.51;100.00
16120;BME280;12670;53.502;10.252;2023-11-21T10:06:05;101464.75;;;9.08;100.00
16120;BME280;12670;53.502;10.252;2023-11-21T10:09:10;101469.78;;;9.19;100.00
16120;BME280;12670;53.502;10.252;2023-11-21T10:12:14;101462.97;;;9.08;100.00
16120;BME280;12670;53.502;10.252;2023-11-21T10:15:17;101471.69;;;9.14;100.00
16120;BME280;12670;53.502;10.252;2023-11-21T10:18:22;101472.28;;;9.26;100.00
16120;BME280;12670;53.502;10.252;2023-11-21T10:21:26;101468.72;;;9.26;100.00
16120;BME280;12670;53.502;10.252;2023-11-21T10:24:29;101470.25;;;9.36;100.00
16120;BME280;12670;53.502;10.252;2023-11-21T10:27:48;101462.50;;;9.28;100.00
16120;BME280;12670;53.502;10.252;2023-11-21T10:30:53;101461.53;;;9.32;100.00
16120;BME280;12670;53.502;10.252;2023-11-21T10:34:13;101469.66;;;9.59;100.00
16120;BME280;12670;53.502;10.252;2023-11-21T10:37:16;101464.56;;;9.51;100.00
16120;BME280;12670;53.502;10.252;2023-11-21T10:40:20;101475.16;;;9.84;100.00
16120;BME280;12670;53.502;10.252;2023-11-21T10:43:25;101481.81;;;10.00;100.00
16120;BME280;12670;53.502;10.252;2023-11-21T10:46:28;101483.72;;;9.61;100.00
16120;BME280;12670;53.502;10.252;2023-11-21T10:49:33;101485.50;;;9.62;100.00
16120;BME280;12670;53.502;10.252;2023-11-21T10:52:36;101489.03;;;9.61;100.00
16120;BME280;12670;53.502;10.252;2023-11-21T10:55:40;101491.06;;;9.85;100.00
16120;BME280;12670;53.502;10.252;2023-11-21T10:58:45;101497.06;;;9.22;100.00
16120;BME280;12670;53.502;10.252;2023-11-21T11:01:48;101492.00;;;9.49;100.00
16120;BME280;12670;53.502;10.252;2023-11-21T11:04:55;101493.94;;;9.76;100.00
16120;BME280;12670;53.502;10.252;2023-11-21T11:08:04;101485.94;;;9.79;100.00
16120;BME280;12670;53.502;10.252;2023-11-21T11:11:07;101493.97;;;9.41;100.00
16120;BME280;12670;53.502;10.252;2023-11-21T11:14:11;101503.66;;;9.42;100.00
16120;BME280;12670;53.502;10.252;2023-11-21T11:17:14;101501.97;;;9.73;100.00
16120;BME280;12670;53.502;10.252;2023-11-21T11:20:19;101509.75;;;9.45;100.00
16120;BME280;12670;53.502;10.252;2023-11-21T11:23:34;101515.13;;;9.76;100.00
16120;BME280;12670;53.502;10.252;2023-11-21T11:26:56;101524.63;;;9.51;100.00
16120;BME280;12670;53.502;10.252;2023-11-21T11:30:11;101517.28;;;9.26;100.00
16120;BME280;12670;53.502;10.252;2023-11-21T11:33:25;101518.00;;;9.67;100.00
16120;BME280;12670;53.502;10.252;2023-11-21T11:36:44;101512.88;;;9.61;100.00
16120;BME280;12670;53.502;10.252;2023-11-21T11:39:50;101514.22;;;9.77;100.00
16120;BME280;12670;53.502;10.252;2023-11-21T11:42:56;101519.41;;;9.48;100.00
16120;BME280;12670;53.502;10.252;2023-11-21T11:46:03;101524.47;;;9.57;100.00
16120;BME280;12670;53.502;10.252;2023-11-21T11:49:06;101525.91;;;9.70;100.00
16120;BME280;12670;53.502;10.252;2023-11-21T11:52:35;101519.09;;;9.60;100.00
16120;BME280;12670;53.502;10.252;2023-11-21T11:55:39;101530.09;;;9.45;100.00
16120;BME280;12670;53.502;10.252;2023-11-21T11:58:42;101528.72;;;9.28;100.00
16120;BME280;12670;53.502;10.252;2023-11-21T12:01:46;101535.13;;;9.54;100.00
16120;BME280;12670;53.502;10.252;2023-11-21T12:04:49;101533.03;;;9.68;100.00
16120;BME280;12670;53.502;10.252;2023-11-21T12:07:54;101538.47;;;9.62;100.00
16120;BME280;12670;53.502;10.252;2023-11-21T12:10:58;101532.59;;;9.49;100.00
16120;BME280;12670;53.502;10.252;2023-11-21T12:14:02;101537.69;;;9.58;100.00
16120;BME280;12670;53.502;10.252;2023-11-21T12:17:07;101548.16;;;9.26;100.00
16120;BME280;12670;53.502;10.252;2023-11-21T12:20:11;101543.78;;;9.26;100.00
16120;BME280;12670;53.502;10.252;2023-11-21T12:23:20;101546.94;;;9.41;100.00
16120;BME280;12670;53.502;10.252;2023-11-21T12:26:23;101554.28;;;9.29;100.00
16120;BME280;12670;53.502;10.252;2023-11-21T12:29:26;101560.84;;;9.50;100.00
16120;BME280;12670;53.502;10.252;2023-11-21T12:32:31;101568.66;;;9.56;100.00
16120;BME280;12670;53.502;10.252;2023-11-21T12:35:35;101570.84;;;9.38;100.00
16120;BME280;12670;53.502;10.252;2023-11-21T12:38:39;101580.34;;;9.09;100.00
16120;BME280;12670;53.502;10.252;2023-11-21T12:41:43;101583.97;;;9.05;100.00
16120;BME280;12670;53.502;10.252;2023-11-21T12:44:46;101600.63;;;9.10;100.00
16120;BME280;12670;53.502;10.252;2023-11-21T12:47:50;101588.78;;;9.26;100.00
16120;BME280;12670;53.502;10.252;2023-11-21T12:50:54;101593.84;;;9.35;100.00
16120;BME280;12670;53.502;10.252;2023-11-21T12:53:58;101596.69;;;9.28;100.00
16120;BME280;12670;53.502;10.252;2023-11-21T12:57:02;101600.19;;;9.28;100.00
16120;BME280;12670;53.502;10.252;2023-11-21T13:00:08;101606.38;;;9.29;100.00
16120;BME280;12670;53.502;10.252;2023-11-21T13:03:16;101611.63;;;9.30;100.00
16120;BME280;12670;53.502;10.252;2023-11-21T13:06:25;101625.31;;;9.11;100.00
16120;BME280;12670;53.502;10.252;2023-11-21T13:09:29;101618.16;;;9.14;100.00
16120;BME280;12670;53.502;10.252;2023-11-21T13:12:32;101624.97;;;8.84;100.00
16120;BME280;12670;53.502;10.252;2023-11-21T13:15:38;101634.81;;;9.19;100.00
16120;BME280;12670;53.502;10.252;2023-11-21T13:18:42;101637.84;;;9.01;100.00
16120;BME280;12670;53.502;10.252;2023-11-21T13:21:45;101642.03;;;9.13;100.00
16120;BME280;12670;53.502;10.252;2023-11-21T13:24:49;101645.88;;;8.98;100.00
16120;BME280;12670;53.502;10.252;2023-11-21T13:27:52;101645.63;;;9.10;100.00
16120;BME280;12670;53.502;10.252;2023-11-21T13:30:55;101649.09;;;9.12;100.00
16120;BME280;12670;53.502;10.252;2023-11-21T13:33:58;101648.09;;;9.18;100.00
16120;BME280;12670;53.502;10.252;2023-11-21T13:37:06;101658.47;;;8.85;100.00
16120;BME280;12670;53.502;10.252;2023-11-21T13:40:11;101662.75;;;8.91;100.00
16120;BME280;12670;53.502;10.252;2023-11-21T13:43:17;101673.88;;;9.08;100.00
16120;BME280;12670;53.502;10.252;2023-11-21T13:46:22;101673.09;;;9.04;100.00
16120;BME280;12670;53.502;10.252;2023-11-21T13:49:25;101669.97;;;9.26;100.00
16120;BME280;12670;53.502;10.252;2023-11-21T13:52:28;101669.66;;;8.99;100.00
16120;BME280;12670;53.502;10.252;2023-11-21T13:55:36;101688.47;;;8.86;100.00
16120;BME280;12670;53.502;10.252;2023-11-21T13:58:39;101679.63;;;8.87;100.00
16120;BME280;12670;53.502;10.252;2023-11-21T14:01:48;101683.50;;;9.12;100.00
16120;BME280;12670;53.502;10.252;2023-11-21T14:04:59;101687.41;;;8.94;100.00
16120;BME280;12670;53.502;10.252;2023-11-21T14:08:06;101692.22;;;9.17;100.00
16120;BME280;12670;53.502;10.252;2023-11-21T14:11:10;101704.00;;;9.02;100.00
16120;BME280;12670;53.502;10.252;2023-11-21T14:14:19;101698.53;;;8.65;100.00
16120;BME280;12670;53.502;10.252;2023-11-21T14:17:22;101706.13;;;8.84;100.00
16120;BME280;12670;53.502;10.252;2023-11-21T14:20:26;101710.69;;;8.77;100.00
16120;BME280;12670;53.502;10.252;2023-11-21T14:23:28;101715.13;;;8.73;100.00
16120;BME280;12670;53.502;10.252;2023-11-21T14:26:32;101720.16;;;8.89;100.00
16120;BME280;12670;53.502;10.252;2023-11-21T14:29:35;101723.56;;;8.95;100.00
16120;BME280;12670;53.502;10.252;2023-11-21T14:32:40;101731.16;;;9.12;100.00
16120;BME280;12670;53.502;10.252;2023-11-21T14:35:44;101738.31;;;8.62;100.00
16120;BME280;12670;53.502;10.252;2023-11-21T14:38:47;101735.31;;;8.26;100.00
16120;BME280;12670;53.502;10.252;2023-11-21T14:41:52;101739.34;;;7.95;100.00
16120;BME280;12670;53.502;10.252;2023-11-21T14:44:57;101737.03;;;8.31;100.00
16120;BME280;12670;53.502;10.252;2023-11-21T14:48:04;101745.16;;;8.18;100.00
16120;BME280;12670;53.502;10.252;2023-11-21T14:51:17;101732.44;;;8.43;100.00
16120;BME280;12670;53.502;10.252;2023-11-21T14:54:29;101750.97;;;8.42;100.00
16120;BME280;12670;53.502;10.252;2023-11-21T14:57:44;101759.69;;;8.48;100.00
16120;BME280;12670;53.502;10.252;2023-11-21T15:00:51;101767.22;;;8.17;100.00
16120;BME280;12670;53.502;10.252;2023-11-21T15:03:58;101779.31;;;8.31;100.00
16120;BME280;12670;53.502;10.252;2023-11-21T15:07:00;101785.53;;;8.29;100.00
16120;BME280;12670;53.502;10.252;2023-11-21T15:10:04;101796.53;;;8.00;100.00
16120;BME280;12670;53.502;10.252;2023-11-21T15:13:13;101798.72;;;8.31;100.00
16120;BME280;12670;53.502;10.252;2023-11-21T15:16:16;101800.44;;;8.34;100.00
16120;BME280;12670;53.502;10.252;2023-11-21T15:19:19;101798.50;;;7.86;100.00
16120;BME280;12670;53.502;10.252;2023-11-21T15:22:27;101812.53;;;7.90;100.00
16120;BME280;12670;53.502;10.252;2023-11-21T15:25:30;101817.66;;;8.00;100.00
16120;BME280;12670;53.502;10.252;2023-11-21T15:28:34;101817.38;;;8.22;100.00
16120;BME280;12670;53.502;10.252;2023-11-21T15:31:37;101825.41;;;8.14;100.00
16120;BME280;12670;53.502;10.252;2023-11-21T15:34:42;101825.47;;;8.11;100.00
16120;BME280;12670;53.502;10.252;2023-11-21T15:37:45;101826.00;;;7.70;100.00
16120;BME280;12670;53.502;10.252;2023-11-21T15:40:48;101837.75;;;8.15;100.00
16120;BME280;12670;53.502;10.252;2023-11-21T15:43:53;101832.16;;;8.37;100.00
16120;BME280;12670;53.502;10.252;2023-11-21T15:46:56;101844.50;;;8.35;100.00
16120;BME280;12670;53.502;10.252;2023-11-21T15:49:59;101846.13;;;8.46;100.00
16120;BME280;12670;53.502;10.252;2023-11-21T15:53:01;101849.88;;;8.28;100.00